createdAt,value
2022-12-16T00:02:43.736Z,-2.82
2022-12-16T00:07:01.957Z,-2.91
2022-12-16T00:11:20.057Z,-2.89
2022-12-16T00:15:37.929Z,-2.92
2022-12-16T00:19:54.803Z,-2.91
2022-12-16T00:24:12.435Z,-2.84
2022-12-16T00:28:29.346Z,-2.84
2022-12-16T00:32:46.420Z,-2.84
2022-12-16T00:37:03.428Z,-2.81
2022-12-16T00:41:20.562Z,-2.81
2022-12-16T00:45:39.223Z,-2.79
2022-12-16T00:49:56.388Z,-2.77
2022-12-16T00:54:13.296Z,-2.67
2022-12-16T00:58:30.461Z,-2.71
2022-12-16T01:02:49.362Z,-2.72
2022-12-16T01:07:06.468Z,-2.72
2022-12-16T01:11:23.302Z,-2.72
2022-12-16T01:15:40.937Z,-2.78
2022-12-16T01:19:57.850Z,-2.72
2022-12-16T01:24:14.911Z,-2.74
2022-12-16T01:28:31.808Z,-2.72
2022-12-16T01:32:48.818Z,-2.72
2022-12-16T01:37:06.220Z,-2.72
2022-12-16T01:41:23.647Z,-2.71
2022-12-16T01:45:40.769Z,-2.68
2022-12-16T01:50:10.065Z,-2.74
2022-12-16T01:54:43.511Z,-2.72
2022-12-16T01:59:01.909Z,-2.77
2022-12-16T02:03:19.383Z,-2.65
2022-12-16T02:07:36.381Z,-2.69
2022-12-16T02:12:17.743Z,-2.81
2022-12-16T02:17:13.566Z,-2.72
2022-12-16T02:22:23.752Z,-2.74
2022-12-16T02:26:58.151Z,-2.82
2022-12-16T02:31:32.741Z,-2.81
2022-12-16T02:36:40.776Z,-2.72
2022-12-16T02:41:04.020Z,-2.78
2022-12-16T02:45:27.822Z,-2.81
2022-12-16T02:49:51.157Z,-2.81
2022-12-16T02:54:10.175Z,-2.81
2022-12-16T02:58:50.612Z,-2.84
2022-12-16T03:03:19.585Z,-2.79
2022-12-16T03:07:41.488Z,-2.92
2022-12-16T03:12:02.702Z,-2.93
2022-12-16T03:16:24.632Z,-2.85
2022-12-16T03:20:57.281Z,-2.78
2022-12-16T03:25:15.148Z,-2.81
2022-12-16T03:29:55.257Z,-2.79
2022-12-16T03:34:22.973Z,-2.86
2022-12-16T03:38:41.365Z,-2.77
2022-12-16T03:42:59.152Z,-2.86
2022-12-16T03:47:23.152Z,-2.79
2022-12-16T03:51:40.807Z,-2.78
2022-12-16T03:55:58.191Z,-2.78
2022-12-16T04:00:15.453Z,-2.77
2022-12-16T04:04:32.523Z,-2.75
2022-12-16T04:08:49.385Z,-2.71
2022-12-16T04:13:26.110Z,-2.75
2022-12-16T04:18:02.001Z,-2.72
2022-12-16T04:22:57.380Z,-2.65
2022-12-16T04:27:27.834Z,-2.62
2022-12-16T04:31:44.982Z,-2.54
2022-12-16T04:36:20.710Z,-2.65
2022-12-16T04:40:56.346Z,-2.65
2022-12-16T04:45:32.073Z,-2.53
2022-12-16T04:50:07.758Z,-2.57
2022-12-16T04:54:54.045Z,-2.44
2022-12-16T04:59:29.898Z,-2.43
2022-12-16T05:04:05.485Z,-2.48
2022-12-16T05:08:41.500Z,-2.39
2022-12-16T05:13:16.950Z,-2.30
2022-12-16T05:17:54.395Z,-2.37
2022-12-16T05:22:29.881Z,-2.37
2022-12-16T05:27:05.498Z,-2.30
2022-12-16T05:31:41.327Z,-2.29
2022-12-16T05:36:17.348Z,-2.20
2022-12-16T05:40:52.954Z,-2.26
2022-12-16T05:45:28.946Z,-2.21
2022-12-16T05:50:04.873Z,-2.23
2022-12-16T05:54:40.552Z,-2.21
2022-12-16T05:59:16.094Z,-2.12
2022-12-16T06:03:52.176Z,-2.19
2022-12-16T06:08:27.986Z,-2.13
2022-12-16T06:13:07.165Z,-2.23
2022-12-16T06:17:42.942Z,-2.17
2022-12-16T06:22:19.854Z,-2.14
2022-12-16T06:26:55.527Z,-2.06
2022-12-16T06:31:31.394Z,-2.19
2022-12-16T06:36:07.447Z,-2.09
2022-12-16T06:40:42.789Z,-2.09
2022-12-16T06:45:18.763Z,-2.21
2022-12-16T06:49:54.158Z,-2.12
2022-12-16T06:54:30.301Z,-2.07
2022-12-16T06:59:05.918Z,-1.98
2022-12-16T07:03:41.971Z,-1.98
2022-12-16T07:08:18.029Z,-2.06
2022-12-16T07:12:53.754Z,-1.99
2022-12-16T07:17:29.465Z,-1.95
2022-12-16T07:22:05.113Z,-1.92
2022-12-16T07:26:40.917Z,-1.83
2022-12-16T07:31:16.547Z,-1.70
2022-12-16T07:35:52.238Z,-1.65
2022-12-16T07:40:42.507Z,-1.70
2022-12-16T07:45:17.844Z,-1.65
2022-12-16T07:49:53.601Z,-1.58
2022-12-16T07:54:34.639Z,-1.57
2022-12-16T07:59:10.367Z,-1.57
2022-12-16T08:03:46.044Z,-1.50
2022-12-16T08:08:22.107Z,-1.47
2022-12-16T08:12:57.776Z,-1.44
2022-12-16T08:17:33.615Z,-1.36
2022-12-16T08:22:09.107Z,-1.33
2022-12-16T08:26:46.060Z,-1.26
2022-12-16T08:31:21.568Z,-1.11
2022-12-16T08:35:57.555Z,-1.17
2022-12-16T08:40:35.668Z,-1.12
2022-12-16T08:45:12.211Z,-0.95
2022-12-16T08:49:48.067Z,-1.06
2022-12-16T08:54:23.871Z,-1.25
2022-12-16T08:58:59.704Z,-1.26
2022-12-16T09:03:49.315Z,-1.17
2022-12-16T09:08:24.785Z,-1.30
2022-12-16T09:13:00.512Z,-1.13
2022-12-16T09:17:36.256Z,-0.82
2022-12-16T09:22:12.217Z,-0.79
2022-12-16T09:26:49.024Z,-0.67
2022-12-16T09:31:25.056Z,-0.53
2022-12-16T09:36:00.713Z,-0.48
2022-12-16T09:40:37.336Z,-0.50
2022-12-16T09:45:36.160Z,-0.22
2022-12-16T09:50:13.848Z,-0.03
2022-12-16T09:54:55.766Z,0.05
2022-12-16T09:59:36.519Z,0.09
2022-12-16T10:04:12.068Z,-0.06
2022-12-16T10:09:05.796Z,-0.05
2022-12-16T10:14:19.461Z,0.01
2022-12-16T10:19:29.471Z,-0.09
2022-12-16T10:24:37.690Z,-0.10
2022-12-16T10:29:45.299Z,-0.19
2022-12-16T10:34:29.300Z,-0.09
2022-12-16T10:39:14.341Z,0.21
2022-12-16T10:43:59.615Z,0.25
2022-12-16T10:48:51.419Z,0.33
2022-12-16T10:53:49.123Z,0.73
2022-12-16T10:58:44.625Z,0.75
2022-12-16T11:03:42.252Z,0.91
2022-12-16T11:08:17.978Z,0.73
2022-12-16T11:12:53.705Z,1.13
2022-12-16T11:17:45.498Z,1.26
2022-12-16T11:22:42.188Z,0.92
2022-12-16T11:27:43.678Z,0.91
2022-12-16T11:32:42.493Z,1.32
2022-12-16T11:37:21.273Z,1.64
2022-12-16T11:42:07.905Z,0.83
2022-12-16T11:46:47.056Z,0.58
2022-12-16T11:51:24.480Z,0.56
2022-12-16T11:56:11.256Z,0.66
2022-12-16T12:00:49.107Z,0.84
2022-12-16T12:05:24.986Z,0.77
2022-12-16T12:10:11.893Z,0.67
2022-12-16T12:15:12.308Z,0.58
2022-12-16T12:20:07.491Z,0.50
2022-12-16T12:25:01.654Z,0.50
2022-12-16T12:30:17.823Z,0.57
2022-12-16T12:35:00.742Z,0.28
2022-12-16T12:39:43.857Z,0.22
2022-12-16T12:44:49.037Z,0.29
2022-12-16T12:50:07.071Z,0.35
2022-12-16T12:54:58.258Z,0.45
2022-12-16T13:00:19.034Z,0.43
2022-12-16T13:04:55.257Z,0.32
2022-12-16T13:09:52.393Z,0.22
2022-12-16T13:14:49.688Z,0.16
2022-12-16T13:19:51.290Z,0.08
2022-12-16T13:24:42.328Z,-0.03
2022-12-16T13:29:51.696Z,-0.19
2022-12-16T13:34:46.453Z,-0.25
2022-12-16T13:39:44.292Z,-0.30
2022-12-16T13:44:19.837Z,-0.25
2022-12-16T13:48:59.708Z,-0.40
2022-12-16T13:53:38.720Z,-0.61
2022-12-16T13:58:23.151Z,-0.71
2022-12-16T14:03:01.599Z,-0.74
2022-12-16T14:07:41.067Z,-0.86
2022-12-16T14:12:23.922Z,-0.93
2022-12-16T14:17:07.630Z,-0.85
2022-12-16T14:21:53.356Z,-0.75
2022-12-16T14:26:33.149Z,-0.88
2022-12-16T14:31:20.827Z,-0.88
2022-12-16T14:36:08.505Z,-0.93
2022-12-16T14:40:51.948Z,-0.93
2022-12-16T14:45:52.143Z,-0.98
2022-12-16T14:50:46.279Z,-1.03
2022-12-16T14:55:50.965Z,-1.11
2022-12-16T15:00:26.572Z,-1.09
2022-12-16T15:05:03.180Z,-1.48
2022-12-16T15:10:03.999Z,-1.40
2022-12-16T15:14:48.043Z,-1.29
2022-12-16T15:19:23.970Z,-1.30
2022-12-16T15:24:03.564Z,-1.23
2022-12-16T15:28:59.391Z,-1.34
2022-12-16T15:33:38.433Z,-1.34
2022-12-16T15:38:21.956Z,-1.50
2022-12-16T15:42:57.414Z,-1.70
2022-12-16T15:47:48.006Z,-1.55
2022-12-16T16:06:04.162Z,-2.02
2022-12-16T16:10:44.254Z,-1.85
2022-12-16T16:15:20.783Z,-1.93
2022-12-16T16:20:10.296Z,-1.89
2022-12-16T16:24:45.917Z,-1.96
2022-12-16T16:29:22.491Z,-1.92
2022-12-16T16:33:58.603Z,-1.92
2022-12-16T16:38:34.326Z,-2.03
2022-12-16T16:43:14.613Z,-2.09
2022-12-16T16:47:50.716Z,-1.96
2022-12-16T16:52:34.570Z,-2.09
2022-12-16T16:57:10.890Z,-1.95
2022-12-16T17:01:46.669Z,-1.83
2022-12-16T17:06:22.879Z,-1.79
2022-12-16T17:10:58.726Z,-1.85
2022-12-16T17:15:41.293Z,-1.91
2022-12-16T17:20:16.819Z,-1.95
2022-12-16T17:24:54.311Z,-1.83
2022-12-16T17:29:57.086Z,-1.82
2022-12-16T17:34:33.029Z,-2.06
2022-12-16T17:39:09.609Z,-2.05
2022-12-16T17:43:45.253Z,-1.86
2022-12-16T17:48:20.954Z,-2.10
2022-12-16T17:52:56.798Z,-2.05
2022-12-16T17:57:33.721Z,-2.13
2022-12-16T18:02:09.297Z,-2.27
2022-12-16T18:06:45.563Z,-2.32
2022-12-16T18:11:20.937Z,-2.47
2022-12-16T18:15:57.010Z,-2.29
2022-12-16T18:20:32.834Z,-2.16
2022-12-16T18:25:08.583Z,-2.16
2022-12-16T18:29:44.752Z,-1.96
2022-12-16T18:34:34.045Z,-1.98
2022-12-16T18:39:09.433Z,-2.01
2022-12-16T18:43:45.297Z,-1.98
2022-12-16T18:48:20.673Z,-1.99
2022-12-16T18:52:56.750Z,-1.98
2022-12-16T18:57:37.888Z,-2.01
2022-12-16T19:02:16.437Z,-2.17
2022-12-16T19:06:51.963Z,-2.07
2022-12-16T19:11:27.837Z,-2.06
2022-12-16T19:16:15.531Z,-2.21
2022-12-16T19:20:51.304Z,-2.13
2022-12-16T19:25:27.679Z,-2.03
2022-12-16T19:30:03.639Z,-2.10
2022-12-16T19:34:39.527Z,-2.09
2022-12-16T19:39:15.084Z,-2.24
2022-12-16T19:43:51.214Z,-2.23
2022-12-16T19:48:28.965Z,-2.32
2022-12-16T19:53:04.525Z,-2.54
2022-12-16T19:57:41.786Z,-2.60
2022-12-16T20:02:17.326Z,-2.33
2022-12-16T20:06:56.029Z,-2.21
2022-12-16T20:11:54.613Z,-2.16
2022-12-16T20:16:31.689Z,-2.26
2022-12-16T20:21:07.676Z,-2.16
2022-12-16T20:25:44.146Z,-2.12
2022-12-16T20:30:19.627Z,-2.14
2022-12-16T20:35:09.234Z,-2.50
2022-12-16T20:39:51.204Z,-2.60
2022-12-16T20:44:32.587Z,-2.78
2022-12-16T20:49:08.033Z,-2.53
2022-12-16T20:53:44.241Z,-2.47
2022-12-16T20:58:19.803Z,-2.50
2022-12-16T21:07:51.200Z,-2.43
2022-12-16T21:12:27.803Z,-2.51
2022-12-16T21:17:03.426Z,-2.48
2022-12-16T21:21:39.030Z,-2.34
2022-12-16T21:26:18.382Z,-2.32
2022-12-16T21:30:54.324Z,-2.51
2022-12-16T21:35:32.211Z,-2.67
2022-12-16T21:40:07.973Z,-2.69
2022-12-16T21:44:43.682Z,-2.68
2022-12-16T21:49:19.507Z,-2.54
2022-12-16T21:53:55.134Z,-2.64
2022-12-16T21:58:33.925Z,-2.64
2022-12-16T22:03:09.809Z,-2.53
2022-12-16T22:07:47.199Z,-2.69
2022-12-16T22:12:23.050Z,-2.79
2022-12-16T22:16:58.863Z,-2.71
2022-12-16T22:21:39.005Z,-3.09
2022-12-16T22:26:20.358Z,-3.16
2022-12-16T22:30:56.220Z,-3.03
2022-12-16T22:35:32.404Z,-3.00
2022-12-16T22:40:07.931Z,-3.10
2022-12-16T22:44:43.773Z,-2.96
2022-12-16T22:49:19.814Z,-2.81
2022-12-16T23:19:15.604Z,-2.86
2022-12-16T23:23:51.462Z,-2.96
2022-12-16T23:28:28.208Z,-3.05
2022-12-16T23:32:31.233Z,-2.41
2022-12-16T23:33:03.570Z,-2.89
2022-12-16T23:37:39.296Z,-2.74
2022-12-16T23:42:14.896Z,-2.88
2022-12-16T23:46:50.522Z,-2.82
2022-12-16T23:51:26.255Z,-2.71
2022-12-16T23:56:01.693Z,-2.74
